sensor_id;sensor_type;location;lat;lon;timestamp;pressure;altitude;pressure_sealevel;temperature;humidity
26192;BME280;13935;55.672;37.764;2023-04-28T05:34:54;99583.34;;;16.07;100.00
26192;BME280;13935;55.672;37.764;2023-04-28T05:40:37;99591.47;;;15.98;100.00
26192;BME280;13935;55.672;37.764;2023-04-28T05:52:42;99579.56;;;17.64;100.00
26192;BME280;13935;55.672;37.764;2023-04-28T05:58:36;99575.63;;;18.18;100.00
26192;BME280;13935;55.672;37.764;2023-04-28T05:59:41;99573.09;;;17.95;100.00
26192;BME280;13935;55.672;37.764;2023-04-28T06:01:31;99579.38;;;17.99;100.00
26192;BME280;13935;55.672;37.764;2023-04-28T06:02:36;99582.22;;;17.83;100.00
26192;BME280;13935;55.672;37.764;2023-04-28T06:08:02;99586.47;;;17.59;100.00
26192;BME280;13935;55.672;37.764;2023-04-28T06:20:26;99569.06;;;17.68;100.00
26192;BME280;13935;55.672;37.764;2023-04-28T06:25:25;99579.19;;;17.78;100.00
26192;BME280;13935;55.672;37.764;2023-04-28T06:37:39;99586.81;;;18.18;100.00
26192;BME280;13935;55.672;37.764;2023-04-28T06:39:10;99590.06;;;18.16;100.00
26192;BME280;13935;55.672;37.764;2023-04-28T06:40:13;99591.69;;;18.30;100.00
26192;BME280;13935;55.672;37.764;2023-04-28T06:41:21;99593.38;;;18.40;100.00
26192;BME280;13935;55.672;37.764;2023-04-28T06:42:25;99593.28;;;18.31;100.00
26192;BME280;13935;55.672;37.764;2023-04-28T06:43:34;99599.47;;;18.51;100.00
26192;BME280;13935;55.672;37.764;2023-04-28T06:45:45;99599.81;;;18.12;100.00
26192;BME280;13935;55.672;37.764;2023-04-28T06:46:47;99594.88;;;18.16;100.00
26192;BME280;13935;55.672;37.764;2023-04-28T06:47:51;99586.88;;;18.02;100.00
26192;BME280;13935;55.672;37.764;2023-04-28T06:48:58;99589.75;;;17.86;100.00
26192;BME280;13935;55.672;37.764;2023-04-28T06:50:01;99588.03;;;17.76;100.00
26192;BME280;13935;55.672;37.764;2023-04-28T06:51:08;99597.03;;;17.68;100.00
26192;BME280;13935;55.672;37.764;2023-04-28T06:52:10;99593.50;;;17.51;100.00
26192;BME280;13935;55.672;37.764;2023-04-28T06:53:15;99593.97;;;17.34;100.00
26192;BME280;13935;55.672;37.764;2023-04-28T06:54:17;99599.44;;;17.06;100.00
26192;BME280;13935;55.672;37.764;2023-04-28T06:55:20;99606.94;;;16.93;100.00
26192;BME280;13935;55.672;37.764;2023-04-28T06:56:22;99605.22;;;16.99;100.00
26192;BME280;13935;55.672;37.764;2023-04-28T06:57:24;99612.09;;;16.94;100.00
26192;BME280;13935;55.672;37.764;2023-04-28T06:58:28;99605.41;;;17.08;100.00
26192;BME280;13935;55.672;37.764;2023-04-28T06:59:30;99608.78;;;16.83;100.00
26192;BME280;13935;55.672;37.764;2023-04-28T07:04:28;99598.31;;;17.03;100.00
26192;BME280;13935;55.672;37.764;2023-04-28T07:05:33;99598.75;;;17.02;100.00
26192;BME280;13935;55.672;37.764;2023-04-28T07:06:36;99601.56;;;17.02;100.00
26192;BME280;13935;55.672;37.764;2023-04-28T07:07:42;99604.44;;;16.98;100.00
26192;BME280;13935;55.672;37.764;2023-04-28T07:13:56;99612.63;;;16.73;100.00
26192;BME280;13935;55.672;37.764;2023-04-28T07:15:34;99612.72;;;16.86;100.00
26192;BME280;13935;55.672;37.764;2023-04-28T07:22:17;99616.03;;;16.81;100.00
26192;BME280;13935;55.672;37.764;2023-04-28T07:23:38;99606.94;;;16.93;100.00
26192;BME280;13935;55.672;37.764;2023-04-28T07:34:27;99628.47;;;16.60;100.00
26192;BME280;13935;55.672;37.764;2023-04-28T07:36:16;99624.94;;;16.56;100.00
26192;BME280;13935;55.672;37.764;2023-04-28T07:37:18;99628.63;;;16.34;100.00
26192;BME280;13935;55.672;37.764;2023-04-28T07:43:01;99630.28;;;16.51;100.00
26192;BME280;13935;55.672;37.764;2023-04-28T07:45:19;99626.75;;;16.66;100.00
26192;BME280;13935;55.672;37.764;2023-04-28T07:48:21;99630.81;;;16.62;100.00
26192;BME280;13935;55.672;37.764;2023-04-28T07:50:31;99621.06;;;16.70;100.00
26192;BME280;13935;55.672;37.764;2023-04-28T07:52:05;99615.00;;;17.22;100.00
26192;BME280;13935;55.672;37.764;2023-04-28T07:53:08;99619.22;;;17.30;100.00
26192;BME280;13935;55.672;37.764;2023-04-28T07:54:36;99612.56;;;17.56;100.00
26192;BME280;13935;55.672;37.764;2023-04-28T07:55:46;99604.59;;;17.83;100.00
26192;BME280;13935;55.672;37.764;2023-04-28T07:56:48;99611.56;;;18.48;100.00
26192;BME280;13935;55.672;37.764;2023-04-28T07:57:51;99615.78;;;18.40;100.00
26192;BME280;13935;55.672;37.764;2023-04-28T07:58:53;99613.97;;;18.21;100.00
26192;BME280;13935;55.672;37.764;2023-04-28T08:00:22;99618.84;;;17.88;100.00
26192;BME280;13935;55.672;37.764;2023-04-28T08:01:24;99607.59;;;18.04;100.00
26192;BME280;13935;55.672;37.764;2023-04-28T08:02:27;99611.59;;;18.19;100.00
26192;BME280;13935;55.672;37.764;2023-04-28T08:03:29;99615.41;;;17.97;100.00
26192;BME280;13935;55.672;37.764;2023-04-28T08:04:31;99616.13;;;18.01;100.00
26192;BME280;13935;55.672;37.764;2023-04-28T08:05:37;99605.78;;;17.98;100.00
26192;BME280;13935;55.672;37.764;2023-04-28T08:06:40;99606.72;;;17.79;100.00
26192;BME280;13935;55.672;37.764;2023-04-28T08:07:42;99612.97;;;17.71;100.00
26192;BME280;13935;55.672;37.764;2023-04-28T08:08:44;99616.50;;;17.87;100.00
26192;BME280;13935;55.672;37.764;2023-04-28T08:09:48;99612.97;;;17.71;100.00
26192;BME280;13935;55.672;37.764;2023-04-28T08:10:52;99614.25;;;17.82;100.00
26192;BME280;13935;55.672;37.764;2023-04-28T08:11:55;99617.16;;;17.63;100.00
26192;BME280;13935;55.672;37.764;2023-04-28T08:12:57;99606.88;;;17.60;100.00
26192;BME280;13935;55.672;37.764;2023-04-28T08:13:59;99610.97;;;17.55;100.00
26192;BME280;13935;55.672;37.764;2023-04-28T08:15:04;99618.69;;;17.35;100.00
26192;BME280;13935;55.672;37.764;2023-04-28T08:16:06;99611.34;;;17.41;100.00
26192;BME280;13935;55.672;37.764;2023-04-28T08:17:09;99619.13;;;17.34;100.00
26192;BME280;13935;55.672;37.764;2023-04-28T08:18:11;99608.38;;;17.48;100.00
26192;BME280;13935;55.672;37.764;2023-04-28T08:19:14;99607.16;;;17.49;100.00
26192;BME280;13935;55.672;37.764;2023-04-28T08:20:16;99609.22;;;17.61;100.00
26192;BME280;13935;55.672;37.764;2023-04-28T08:21:23;99614.13;;;17.57;100.00
26192;BME280;13935;55.672;37.764;2023-04-28T08:22:25;99612.22;;;17.38;100.00
26192;BME280;13935;55.672;37.764;2023-04-28T08:23:27;99622.72;;;17.34;100.00
26192;BME280;13935;55.672;37.764;2023-04-28T08:24:32;99619.38;;;17.39;100.00
26192;BME280;13935;55.672;37.764;2023-04-28T08:25:37;99625.41;;;17.22;100.00
26192;BME280;13935;55.672;37.764;2023-04-28T08:26:39;99618.09;;;17.28;100.00
26192;BME280;13935;55.672;37.764;2023-04-28T08:27:41;99620.59;;;17.22;100.00
26192;BME280;13935;55.672;37.764;2023-04-28T08:28:43;99617.28;;;17.27;100.00
26192;BME280;13935;55.672;37.764;2023-04-28T08:29:46;99620.75;;;17.15;100.00
26192;BME280;13935;55.672;37.764;2023-04-28T08:30:48;99616.22;;;17.06;100.00
26192;BME280;13935;55.672;37.764;2023-04-28T08:31:50;99616.75;;;17.01;100.00
26192;BME280;13935;55.672;37.764;2023-04-28T08:32:52;99617.88;;;17.19;100.00
26192;BME280;13935;55.672;37.764;2023-04-28T08:33:55;99616.91;;;17.10;100.00
26192;BME280;13935;55.672;37.764;2023-04-28T08:35:06;99619.97;;;17.15;100.00
26192;BME280;13935;55.672;37.764;2023-04-28T08:36:10;99617.81;;;17.07;100.00
26192;BME280;13935;55.672;37.764;2023-04-28T08:37:19;99612.91;;;17.11;100.00
26192;BME280;13935;55.672;37.764;2023-04-28T08:38:21;99612.38;;;17.00;100.00
26192;BME280;13935;55.672;37.764;2023-04-28T08:39:25;99613.09;;;17.19;100.00
26192;BME280;13935;55.672;37.764;2023-04-28T08:40:27;99619.63;;;17.13;100.00
26192;BME280;13935;55.672;37.764;2023-04-28T08:41:32;99614.28;;;17.03;100.00
26192;BME280;13935;55.672;37.764;2023-04-28T08:42:38;99612.38;;;17.00;100.00
26192;BME280;13935;55.672;37.764;2023-04-28T08:43:41;99618.81;;;16.97;100.00
26192;BME280;13935;55.672;37.764;2023-04-28T08:46:43;99620.06;;;16.96;100.00
26192;BME280;13935;55.672;37.764;2023-04-28T08:47:56;99615.88;;;17.04;100.00
26192;BME280;13935;55.672;37.764;2023-04-28T08:49:03;99620.47;;;16.94;100.00
26192;BME280;13935;55.672;37.764;2023-04-28T08:50:37;99616.56;;;16.92;100.00
26192;BME280;13935;55.672;37.764;2023-04-28T08:59:33;99628.25;;;16.51;100.00
26192;BME280;13935;55.672;37.764;2023-04-28T09:03:10;99630.97;;;16.55;100.00
26192;BME280;13935;55.672;37.764;2023-04-28T09:07:48;99626.16;;;16.75;100.00
26192;BME280;13935;55.672;37.764;2023-04-28T09:10:43;99623.56;;;17.00;100.00
26192;BME280;13935;55.672;37.764;2023-04-28T09:11:59;99623.72;;;16.93;100.00
26192;BME280;13935;55.672;37.764;2023-04-28T09:13:03;99630.81;;;16.97;100.00
26192;BME280;13935;55.672;37.764;2023-04-28T09:14:11;99620.06;;;17.12;100.00
26192;BME280;13935;55.672;37.764;2023-04-28T09:15:47;99622.88;;;17.12;100.00
26192;BME280;13935;55.672;37.764;2023-04-28T09:16:48;99625.41;;;17.22;100.00
26192;BME280;13935;55.672;37.764;2023-04-28T09:17:51;99625.84;;;17.20;100.00
26192;BME280;13935;55.672;37.764;2023-04-28T09:18:56;99627.06;;;17.19;100.00
26192;BME280;13935;55.672;37.764;2023-04-28T09:20:00;99626.09;;;17.26;100.00
26192;BME280;13935;55.672;37.764;2023-04-28T09:21:31;99631.78;;;17.22;100.00
26192;BME280;13935;55.672;37.764;2023-04-28T09:22:34;99627.84;;;17.20;100.00
26192;BME280;13935;55.672;37.764;2023-04-28T09:23:48;99626.94;;;17.26;100.00
26192;BME280;13935;55.672;37.764;2023-04-28T09:24:52;99626.44;;;17.12;100.00
26192;BME280;13935;55.672;37.764;2023-04-28T09:26:17;99631.94;;;17.15;100.00
26192;BME280;13935;55.672;37.764;2023-04-28T09:27:27;99632.22;;;17.05;100.00
26192;BME280;13935;55.672;37.764;2023-04-28T09:28:31;99631.16;;;17.15;100.00
26192;BME280;13935;55.672;37.764;2023-04-28T09:36:49;99621.53;;;17.00;100.00
26192;BME280;13935;55.672;37.764;2023-04-28T09:38:01;99619.72;;;16.94;100.00
26192;BME280;13935;55.672;37.764;2023-04-28T09:39:05;99626.16;;;16.91;100.00
26192;BME280;13935;55.672;37.764;2023-04-28T09:40:09;99616.19;;;16.90;100.00
26192;BME280;13935;55.672;37.764;2023-04-28T09:41:12;99619.63;;;16.97;100.00
26192;BME280;13935;55.672;37.764;2023-04-28T09:42:37;99620.66;;;16.87;100.00
26192;BME280;13935;55.672;37.764;2023-04-28T09:43:39;99624.94;;;16.92;100.00
26192;BME280;13935;55.672;37.764;2023-04-28T09:44:54;99623.13;;;16.85;100.00
26192;BME280;13935;55.672;37.764;2023-04-28T09:51:09;99622.81;;;16.64;100.00
26192;BME280;13935;55.672;37.764;2023-04-28T09:52:15;99614.91;;;16.59;100.00
26192;BME280;13935;55.672;37.764;2023-04-28T09:53:18;99628.78;;;16.82;100.00
26192;BME280;13935;55.672;37.764;2023-04-28T09:58:08;99627.50;;;16.67;100.00
26192;BME280;13935;55.672;37.764;2023-04-28T09:59:12;99621.78;;;16.74;100.00
26192;BME280;13935;55.672;37.764;2023-04-28T10:02:37;99629.78;;;16.72;100.00
26192;BME280;13935;55.672;37.764;2023-04-28T10:03:45;99635.53;;;16.65;100.00
26192;BME280;13935;55.672;37.764;2023-04-28T10:07:04;99632.44;;;16.79;100.00
26192;BME280;13935;55.672;37.764;2023-04-28T10:08:07;99642.47;;;16.76;100.00
26192;BME280;13935;55.672;37.764;2023-04-28T10:09:11;99647.59;;;16.62;100.00
26192;BME280;13935;55.672;37.764;2023-04-28T10:10:44;99643.59;;;16.63;100.00
26192;BME280;13935;55.672;37.764;2023-04-28T10:11:47;99644.78;;;16.62;100.00
26192;BME280;13935;55.672;37.764;2023-04-28T10:12:50;99636.06;;;16.60;100.00
26192;BME280;13935;55.672;37.764;2023-04-28T10:13:54;99640.28;;;16.68;100.00
26192;BME280;13935;55.672;37.764;2023-04-28T10:14:57;99647.75;;;16.55;100.00
26192;BME280;13935;55.672;37.764;2023-04-28T10:16:19;99631.50;;;16.50;100.00
26192;BME280;13935;55.672;37.764;2023-04-28T10:17:21;99639.94;;;16.46;100.00
26192;BME280;13935;55.672;37.764;2023-04-28T10:38:26;99630.75;;;17.48;100.00
26192;BME280;13935;55.672;37.764;2023-04-28T10:50:33;99624.53;;;17.57;100.00
26192;BME280;13935;55.672;37.764;2023-04-28T11:01:50;99629.03;;;17.38;100.00
26192;BME280;13935;55.672;37.764;2023-04-28T11:08:54;99630.56;;;17.23;100.00
26192;BME280;13935;55.672;37.764;2023-04-28T11:11:30;99634.56;;;17.22;100.00
26192;BME280;13935;55.672;37.764;2023-04-28T11:20:13;99637.75;;;17.40;100.00
26192;BME280;13935;55.672;37.764;2023-04-28T12:32:14;99638.75;;;16.99;100.00
26192;BME280;13935;55.672;37.764;2023-04-28T12:38:58;99634.44;;;17.29;100.00
26192;BME280;13935;55.672;37.764;2023-04-28T12:44:35;99620.78;;;17.47;100.00
26192;BME280;13935;55.672;37.764;2023-04-28T12:51:32;99614.44;;;17.75;100.00
26192;BME280;13935;55.672;37.764;2023-04-28T12:57:03;99622.66;;;17.66;100.00
26192;BME280;13935;55.672;37.764;2023-04-28T12:58:06;99621.81;;;17.69;100.00
26192;BME280;13935;55.672;37.764;2023-04-28T12:59:09;99617.56;;;17.77;100.00
26192;BME280;13935;55.672;37.764;2023-04-28T13:03:56;99619.72;;;17.57;100.00
26192;BME280;13935;55.672;37.764;2023-04-28T13:04:59;99617.84;;;17.38;100.00
26192;BME280;13935;55.672;37.764;2023-04-28T13:06:04;99626.03;;;17.29;100.00
26192;BME280;13935;55.672;37.764;2023-04-28T13:07:07;99620.50;;;17.26;100.00
26192;BME280;13935;55.672;37.764;2023-04-28T13:08:11;99623.41;;;17.38;100.00
26192;BME280;13935;55.672;37.764;2023-04-28T13:09:15;99626.34;;;17.15;100.00
26192;BME280;13935;55.672;37.764;2023-04-28T13:10:19;99625.47;;;16.87;100.00
26192;BME280;13935;55.672;37.764;2023-04-28T13:11:24;99629.56;;;16.82;100.00
26192;BME280;13935;55.672;37.764;2023-04-28T13:12:28;99624.09;;;16.59;100.00
26192;BME280;13935;55.672;37.764;2023-04-28T13:13:30;99624.72;;;16.67;100.00
26192;BME280;13935;55.672;37.764;2023-04-28T13:14:36;99632.19;;;16.54;100.00
26192;BME280;13935;55.672;37.764;2023-04-28T13:15:40;99635.22;;;16.43;100.00
26192;BME280;13935;55.672;37.764;2023-04-28T13:16:43;99629.06;;;16.33;100.00
26192;BME280;13935;55.672;37.764;2023-04-28T13:21:46;99635.22;;;16.24;100.00
26192;BME280;13935;55.672;37.764;2023-04-28T13:56:55;99658.66;;;15.46;100.00
26192;BME280;13935;55.672;37.764;2023-04-28T14:03:48;99678.56;;;14.95;100.00
26192;BME280;13935;55.672;37.764;2023-04-28T14:11:21;99696.19;;;14.85;100.00
26192;BME280;13935;55.672;37.764;2023-04-28T15:11:17;99719.84;;;13.67;100.00
26192;BME280;13935;55.672;37.764;2023-04-28T15:12:21;99708.66;;;13.70;100.00
26192;BME280;13935;55.672;37.764;2023-04-28T15:13:24;99704.66;;;13.75;100.00
26192;BME280;13935;55.672;37.764;2023-04-28T15:14:39;99714.16;;;13.77;100.00
26192;BME280;13935;55.672;37.764;2023-04-28T15:18:05;99715.84;;;13.64;100.00
26192;BME280;13935;55.672;37.764;2023-04-28T15:19:10;99717.47;;;13.62;100.00
26192;BME280;13935;55.672;37.764;2023-04-28T15:24:22;99713.88;;;13.65;100.00
26192;BME280;13935;55.672;37.764;2023-04-28T16:16:27;99740.81;;;12.46;100.00
26192;BME280;13935;55.672;37.764;2023-04-28T16:21:19;99752.25;;;12.62;100.00
26192;BME280;13935;55.672;37.764;2023-04-28T16:27:06;99758.56;;;12.73;100.00
26192;BME280;13935;55.672;37.764;2023-04-28T16:28:19;99757.00;;;12.65;100.00
26192;BME280;13935;55.672;37.764;2023-04-28T16:29:25;99742.69;;;12.66;100.00
26192;BME280;13935;55.672;37.764;2023-04-28T16:32:30;99757.03;;;12.51;100.00
26192;BME280;13935;55.672;37.764;2023-04-28T16:33:50;99760.59;;;12.62;100.00
26192;BME280;13935;55.672;37.764;2023-04-28T18:44:16;99839.16;;;10.49;100.00
26192;BME280;13935;55.672;37.764;2023-04-28T19:04:39;99832.19;;;10.11;100.00
26192;BME280;13935;55.672;37.764;2023-04-28T19:05:44;99833.78;;;10.12;100.00
26192;BME280;13935;55.672;37.764;2023-04-28T19:07:14;99837.25;;;10.02;100.00
26192;BME280;13935;55.672;37.764;2023-04-28T19:08:19;99845.97;;;10.04;100.00
26192;BME280;13935;55.672;37.764;2023-04-28T19:09:23;99840.06;;;10.06;100.00
26192;BME280;13935;55.672;37.764;2023-04-28T19:10:26;99843.63;;;10.06;100.00
26192;BME280;13935;55.672;37.764;2023-04-28T19:11:33;99841.19;;;9.98;100.00
26192;BME280;13935;55.672;37.764;2023-04-28T19:12:36;99843.69;;;10.13;100.00
26192;BME280;13935;55.672;37.764;2023-04-28T19:13:40;99838.09;;;10.06;100.00
26192;BME280;13935;55.672;37.764;2023-04-28T19:14:45;99835.72;;;10.08;100.00
26192;BME280;13935;55.672;37.764;2023-04-28T19:15:52;99844.03;;;10.12;100.00
26192;BME280;13935;55.672;37.764;2023-04-28T19:20:43;99838.88;;;10.07;100.00
26192;BME280;13935;55.672;37.764;2023-04-28T21:40:35;99823.09;;;8.26;100.00
